createdAt,value
2023-05-22T00:01:06.564Z,18.50
2023-05-22T00:03:33.363Z,18.45
2023-05-22T00:06:00.171Z,18.43
2023-05-22T00:08:29.415Z,18.40
2023-05-22T00:10:56.643Z,18.42
2023-05-22T00:13:23.391Z,18.37
2023-05-22T00:15:49.997Z,18.32
2023-05-22T00:18:16.760Z,18.27
2023-05-22T00:20:46.502Z,18.22
2023-05-22T00:23:15.566Z,18.21
2023-05-22T00:25:42.425Z,18.16
2023-05-22T00:28:08.986Z,18.10
2023-05-22T00:30:37.081Z,18.18
2023-05-22T00:33:04.250Z,18.21
2023-05-22T00:35:31.041Z,18.24
2023-05-22T00:37:57.723Z,18.14
2023-05-22T00:40:24.462Z,18.08
2023-05-22T00:42:51.004Z,18.08
2023-05-22T00:45:17.700Z,18.07
2023-05-22T00:47:44.368Z,17.98
2023-05-22T00:50:12.475Z,17.95
2023-05-22T00:52:42.552Z,17.89
2023-05-22T00:55:10.875Z,17.93
2023-05-22T00:57:41.952Z,17.89
2023-05-22T01:00:13.142Z,17.82
2023-05-22T01:02:42.953Z,17.73
2023-05-22T01:05:13.076Z,17.72
2023-05-22T01:07:40.025Z,17.61
2023-05-22T01:10:07.361Z,17.58
2023-05-22T01:12:59.917Z,17.45
2023-05-22T01:15:43.326Z,17.41
2023-05-22T01:18:32.145Z,17.33
2023-05-22T01:21:04.620Z,17.25
2023-05-22T01:23:57.507Z,17.23
2023-05-22T01:26:42.587Z,17.18
2023-05-22T01:29:26.713Z,17.13
2023-05-22T01:31:55.439Z,17.08
2023-05-22T01:34:22.136Z,17.04
2023-05-22T01:36:50.841Z,16.96
2023-05-22T01:39:17.904Z,16.95
2023-05-22T01:41:44.787Z,16.93
2023-05-22T01:44:11.435Z,16.99
2023-05-22T01:46:37.994Z,16.87
2023-05-22T01:49:04.673Z,16.81
2023-05-22T01:51:53.828Z,16.80
2023-05-22T01:54:42.300Z,16.86
2023-05-22T01:57:27.512Z,16.78
2023-05-22T02:00:00.011Z,16.73
2023-05-22T02:02:28.317Z,16.74
2023-05-22T02:05:00.882Z,16.68
2023-05-22T02:07:28.987Z,16.64
2023-05-22T02:09:57.021Z,16.58
2023-05-22T02:12:24.505Z,16.54
2023-05-22T02:14:51.605Z,16.52
2023-05-22T02:17:18.971Z,16.48
2023-05-22T02:19:45.712Z,16.47
2023-05-22T02:22:15.922Z,16.41
2023-05-22T02:24:46.765Z,16.48
2023-05-22T02:27:13.498Z,16.41
2023-05-22T02:29:40.483Z,16.36
2023-05-22T02:32:07.289Z,16.36
2023-05-22T02:34:35.075Z,16.34
2023-05-22T02:37:05.576Z,16.42
2023-05-22T02:39:32.341Z,16.39
2023-05-22T02:41:58.966Z,16.35
2023-05-22T02:44:25.533Z,16.27
2023-05-22T02:46:52.123Z,16.20
2023-05-22T02:49:18.798Z,16.15
2023-05-22T02:51:47.669Z,16.16
2023-05-22T02:54:15.766Z,16.14
2023-05-22T02:56:43.418Z,16.08
2023-05-22T02:59:10.266Z,16.07
2023-05-22T03:01:38.724Z,16.00
2023-05-22T03:04:06.415Z,16.00
2023-05-22T03:06:34.323Z,15.99
2023-05-22T03:09:01.233Z,16.09
2023-05-22T03:11:27.858Z,16.02
2023-05-22T03:13:54.398Z,15.95
2023-05-22T03:16:21.005Z,15.94
2023-05-22T03:18:47.892Z,15.90
2023-05-22T03:21:14.450Z,15.87
2023-05-22T03:23:40.973Z,15.84
2023-05-22T03:26:07.645Z,15.80
2023-05-22T03:28:34.298Z,15.83
2023-05-22T03:31:01.245Z,15.84
2023-05-22T03:33:27.791Z,15.82
2023-05-22T03:35:54.410Z,15.81
2023-05-22T03:38:20.962Z,15.83
2023-05-22T03:40:47.834Z,15.86
2023-05-22T03:43:14.711Z,15.94
2023-05-22T03:45:41.308Z,15.98
2023-05-22T03:48:08.410Z,16.11
2023-05-22T03:50:35.237Z,16.17
2023-05-22T03:53:02.152Z,16.25
2023-05-22T03:55:30.981Z,16.26
2023-05-22T03:57:57.979Z,16.33
2023-05-22T04:00:26.772Z,16.38
2023-05-22T04:02:55.064Z,16.41
2023-05-22T04:05:22.520Z,16.45
2023-05-22T04:07:49.658Z,16.51
2023-05-22T04:10:16.905Z,16.58
2023-05-22T04:12:43.891Z,16.62
2023-05-22T04:15:11.016Z,16.73
2023-05-22T04:17:41.182Z,16.80
2023-05-22T04:20:09.023Z,16.88
2023-05-22T04:22:36.913Z,16.93
2023-05-22T04:25:03.731Z,16.97
2023-05-22T04:27:30.630Z,17.00
2023-05-22T04:30:00.110Z,17.10
2023-05-22T04:32:27.615Z,17.13
2023-05-22T04:34:54.271Z,17.17
2023-05-22T04:37:21.047Z,17.17
2023-05-22T04:39:47.871Z,17.23
2023-05-22T04:42:15.886Z,17.26
2023-05-22T04:44:42.662Z,17.26
2023-05-22T04:47:14.513Z,17.23
2023-05-22T04:49:45.972Z,17.22
2023-05-22T04:52:12.685Z,17.22
2023-05-22T04:54:39.420Z,17.17
2023-05-22T04:57:06.129Z,17.16
2023-05-22T04:59:38.080Z,17.10
2023-05-22T05:02:07.515Z,17.06
2023-05-22T05:04:34.279Z,16.97
2023-05-22T05:07:02.413Z,17.01
2023-05-22T05:09:29.187Z,17.02
2023-05-22T05:11:55.771Z,17.01
2023-05-22T05:14:22.342Z,16.95
2023-05-22T05:16:48.957Z,16.92
2023-05-22T05:19:16.616Z,16.95
2023-05-22T05:21:43.534Z,16.96
2023-05-22T05:24:10.132Z,16.94
2023-05-22T05:26:36.697Z,16.96
2023-05-22T05:29:03.260Z,16.98
2023-05-22T05:31:29.941Z,16.96
2023-05-22T05:33:58.148Z,17.00
2023-05-22T05:36:25.202Z,16.97
2023-05-22T05:38:51.694Z,16.98
2023-05-22T05:41:19.107Z,17.01
2023-05-22T05:43:45.669Z,17.04
2023-05-22T05:46:12.882Z,17.02
2023-05-22T05:48:39.508Z,17.10
2023-05-22T05:51:06.135Z,17.22
2023-05-22T05:53:32.819Z,17.33
2023-05-22T05:55:59.444Z,17.40
2023-05-22T05:58:25.977Z,17.54
2023-05-22T06:00:52.469Z,17.60
2023-05-22T06:03:19.078Z,17.69
2023-05-22T06:05:49.805Z,17.78
2023-05-22T06:08:16.416Z,17.90
2023-05-22T06:10:42.929Z,17.93
2023-05-22T06:13:09.444Z,17.96
2023-05-22T06:15:36.007Z,17.93
2023-05-22T06:18:02.611Z,18.06
2023-05-22T06:20:29.250Z,18.14
2023-05-22T06:22:55.986Z,18.30
2023-05-22T06:25:23.734Z,18.45
2023-05-22T06:27:50.251Z,18.64
2023-05-22T06:30:25.319Z,18.79
2023-05-22T06:32:58.937Z,18.81
2023-05-22T06:35:25.584Z,18.85
2023-05-22T06:37:52.296Z,19.04
2023-05-22T06:40:18.866Z,19.18
2023-05-22T06:42:45.538Z,19.25
2023-05-22T06:45:12.100Z,19.36
2023-05-22T06:47:38.716Z,19.37
2023-05-22T06:50:06.716Z,19.49
2023-05-22T06:52:33.818Z,19.44
2023-05-22T06:55:04.570Z,19.39
2023-05-22T06:57:32.264Z,19.48
2023-05-22T06:59:58.949Z,19.47
2023-05-22T07:02:26.170Z,19.55
2023-05-22T07:04:53.580Z,19.56
2023-05-22T07:07:20.532Z,19.63
2023-05-22T07:09:47.174Z,19.71
2023-05-22T07:12:13.781Z,19.68
2023-05-22T07:14:40.295Z,19.86
2023-05-22T07:17:06.911Z,20.02
2023-05-22T07:19:33.975Z,20.21
2023-05-22T07:22:00.587Z,20.29
2023-05-22T07:24:27.244Z,20.16
2023-05-22T07:26:53.859Z,20.06
2023-05-22T07:29:22.984Z,20.13
2023-05-22T07:31:50.078Z,20.22
2023-05-22T07:34:17.322Z,20.29
2023-05-22T07:36:43.860Z,20.38
2023-05-22T07:39:10.361Z,20.51
2023-05-22T07:41:36.950Z,20.60
2023-05-22T07:44:03.452Z,20.77
2023-05-22T07:46:30.032Z,20.90
2023-05-22T07:48:56.735Z,21.06
2023-05-22T07:51:23.298Z,21.15
2023-05-22T07:53:49.827Z,21.15
2023-05-22T07:56:17.614Z,21.18
2023-05-22T07:58:44.362Z,21.20
2023-05-22T08:01:11.116Z,21.57
2023-05-22T08:03:37.902Z,21.77
2023-05-22T08:06:04.783Z,21.50
2023-05-22T08:08:32.166Z,21.82
2023-05-22T08:13:28.183Z,22.10
2023-05-22T08:16:00.297Z,22.07
2023-05-22T08:18:29.173Z,22.05
2023-05-22T08:20:56.201Z,21.81
2023-05-22T08:23:23.094Z,22.05
2023-05-22T08:25:50.273Z,22.49
2023-05-22T08:28:17.293Z,22.77
2023-05-22T08:30:44.088Z,22.86
2023-05-22T08:33:12.137Z,23.05
2023-05-22T08:35:39.155Z,22.96
2023-05-22T08:38:05.863Z,22.95
2023-05-22T08:40:37.738Z,22.77
2023-05-22T08:43:07.838Z,22.86
2023-05-22T08:45:34.787Z,22.68
2023-05-22T08:48:06.509Z,22.92
2023-05-22T08:50:37.110Z,23.09
2023-05-22T08:53:06.842Z,23.46
2023-05-22T08:55:34.341Z,23.98
2023-05-22T08:58:01.414Z,24.17
2023-05-22T09:00:29.727Z,23.97
2023-05-22T09:02:57.662Z,24.16
2023-05-22T09:05:26.719Z,24.08
2023-05-22T09:07:56.539Z,24.24
2023-05-22T09:10:25.575Z,24.26
2023-05-22T09:13:09.279Z,24.04
2023-05-22T09:15:37.195Z,23.89
2023-05-22T09:18:05.003Z,23.73
2023-05-22T09:20:39.139Z,23.54
2023-05-22T09:23:19.827Z,23.71
2023-05-22T09:25:46.668Z,24.02
2023-05-22T09:28:13.637Z,24.46
2023-05-22T09:30:42.378Z,24.62
2023-05-22T09:33:12.910Z,25.17
2023-05-22T09:35:39.896Z,25.37
2023-05-22T09:38:06.549Z,25.74
2023-05-22T09:40:35.046Z,26.07
2023-05-22T09:43:06.560Z,26.14
2023-05-22T09:45:35.986Z,25.96
2023-05-22T09:48:04.345Z,25.98
2023-05-22T09:50:31.623Z,25.70
2023-05-22T09:53:02.069Z,25.74
2023-05-22T09:55:29.147Z,25.52
2023-05-22T09:57:56.957Z,25.16
2023-05-22T10:00:25.126Z,25.24
2023-05-22T10:03:24.623Z,25.59
2023-05-22T10:05:54.277Z,25.67
2023-05-22T10:08:25.142Z,25.78
2023-05-22T10:10:53.633Z,25.82
2023-05-22T10:13:21.457Z,26.28
2023-05-22T10:15:49.486Z,26.62
2023-05-22T10:18:17.479Z,26.36
2023-05-22T10:20:46.810Z,26.21
2023-05-22T10:23:15.323Z,26.47
2023-05-22T10:25:42.979Z,26.63
2023-05-22T10:28:10.825Z,26.64
2023-05-22T10:30:40.864Z,26.64
2023-05-22T10:33:16.766Z,26.72
2023-05-22T10:35:58.979Z,26.86
2023-05-22T10:38:28.328Z,27.09
2023-05-22T10:40:55.887Z,27.31
2023-05-22T10:43:22.995Z,27.72
2023-05-22T10:45:49.821Z,28.04
2023-05-22T10:48:22.204Z,28.36
2023-05-22T10:50:54.774Z,28.87
2023-05-22T10:53:24.688Z,28.58
2023-05-22T10:55:53.308Z,28.73
2023-05-22T10:58:38.295Z,28.47
2023-05-22T11:01:21.395Z,28.06
2023-05-22T11:04:11.599Z,28.23
2023-05-22T11:06:46.320Z,27.92
2023-05-22T11:09:31.961Z,28.32
2023-05-22T11:12:31.045Z,28.43
2023-05-22T11:15:06.154Z,29.03
2023-05-22T11:17:36.191Z,29.22
2023-05-22T11:20:05.514Z,28.70
2023-05-22T11:22:37.176Z,29.03
2023-05-22T11:25:09.652Z,28.61
2023-05-22T11:27:37.283Z,28.77
2023-05-22T11:30:04.167Z,27.83
2023-05-22T11:32:31.003Z,28.37
2023-05-22T11:34:57.914Z,28.32
2023-05-22T11:37:24.495Z,28.10
2023-05-22T11:39:56.777Z,28.42
2023-05-22T11:42:23.713Z,28.34
2023-05-22T11:44:50.414Z,28.88
2023-05-22T11:47:16.997Z,28.88
2023-05-22T11:49:44.060Z,29.18
2023-05-22T11:52:10.947Z,29.78
2023-05-22T11:54:38.925Z,30.05
2023-05-22T11:57:08.330Z,30.05
2023-05-22T11:59:35.694Z,30.65
2023-05-22T12:02:02.281Z,31.07
2023-05-22T12:04:28.845Z,31.08
2023-05-22T12:06:56.084Z,32.65
2023-05-22T12:09:23.228Z,32.67
2023-05-22T12:11:49.910Z,32.17
2023-05-22T12:14:16.579Z,32.22
2023-05-22T12:16:44.449Z,32.02
2023-05-22T12:19:12.096Z,31.86
2023-05-22T12:21:39.439Z,32.37
2023-05-22T12:24:06.424Z,33.31
2023-05-22T12:26:33.101Z,33.63
2023-05-22T12:29:00.268Z,34.43
2023-05-22T12:31:27.188Z,34.71
2023-05-22T12:33:55.139Z,35.58
2023-05-22T12:36:31.157Z,35.20
2023-05-22T12:38:57.836Z,35.55
2023-05-22T12:41:24.321Z,35.52
2023-05-22T12:43:51.070Z,34.50
2023-05-22T12:46:17.755Z,33.71
2023-05-22T12:48:44.271Z,34.45
2023-05-22T12:51:10.917Z,35.91
2023-05-22T12:53:37.403Z,36.13
2023-05-22T12:56:04.173Z,34.55
2023-05-22T12:58:30.682Z,35.55
2023-05-22T13:00:57.221Z,35.45
2023-05-22T13:03:23.907Z,35.95
2023-05-22T13:05:50.415Z,36.91
2023-05-22T13:08:17.004Z,36.50
2023-05-22T13:10:43.586Z,35.77
2023-05-22T13:13:10.076Z,35.71
2023-05-22T13:15:36.631Z,35.84
2023-05-22T13:18:04.087Z,36.47
2023-05-22T13:20:30.666Z,35.98
2023-05-22T13:22:57.404Z,36.35
2023-05-22T13:25:24.441Z,36.33
2023-05-22T13:27:51.058Z,35.87
2023-05-22T13:30:17.615Z,36.56
2023-05-22T13:32:44.168Z,33.57
2023-05-22T13:35:10.770Z,34.89
2023-05-22T13:37:37.861Z,34.90
2023-05-22T13:40:04.894Z,34.72
2023-05-22T13:42:31.438Z,34.89
2023-05-22T13:44:58.253Z,33.97
2023-05-22T13:47:25.965Z,33.97
2023-05-22T13:49:52.523Z,34.63
2023-05-22T13:52:18.999Z,35.23
2023-05-22T13:54:45.667Z,35.62
2023-05-22T13:57:12.250Z,34.85
2023-05-22T13:59:38.803Z,34.70
2023-05-22T14:02:05.784Z,34.63
2023-05-22T14:04:32.337Z,34.35
2023-05-22T14:06:59.093Z,34.05
2023-05-22T14:09:25.774Z,34.15
2023-05-22T14:11:52.313Z,33.69
2023-05-22T14:14:23.883Z,33.83
2023-05-22T14:16:51.613Z,34.65
2023-05-22T14:19:19.185Z,35.03
2023-05-22T14:21:48.419Z,35.60
2023-05-22T14:24:15.039Z,35.84
2023-05-22T14:26:41.659Z,35.52
2023-05-22T14:29:08.302Z,36.12
2023-05-22T14:31:45.881Z,36.23
2023-05-22T14:34:12.636Z,35.54
2023-05-22T14:36:39.106Z,35.72
2023-05-22T14:39:05.616Z,36.06
2023-05-22T14:41:32.116Z,36.12
2023-05-22T14:43:58.635Z,36.91
2023-05-22T14:46:25.231Z,37.51
2023-05-22T14:48:51.797Z,36.67
2023-05-22T14:51:21.746Z,36.70
2023-05-22T14:53:48.460Z,36.33
2023-05-22T14:56:14.986Z,35.58
2023-05-22T14:58:41.555Z,35.49
2023-05-22T15:01:08.040Z,35.48
2023-05-22T15:03:34.556Z,35.35
2023-05-22T15:06:01.110Z,35.14
2023-05-22T15:08:27.646Z,35.87
2023-05-22T15:10:54.168Z,35.24
2023-05-22T15:13:21.506Z,34.31
2023-05-22T15:15:48.030Z,32.56
2023-05-22T15:18:14.667Z,32.90
2023-05-22T15:20:41.231Z,34.03
2023-05-22T15:23:07.766Z,34.89
2023-05-22T15:25:36.437Z,34.61
2023-05-22T15:28:06.379Z,35.59
2023-05-22T15:30:38.863Z,34.31
2023-05-22T15:33:05.729Z,35.07
2023-05-22T15:35:32.328Z,34.83
2023-05-22T15:37:59.041Z,33.97
2023-05-22T15:40:25.710Z,34.14
2023-05-22T15:42:53.197Z,33.57
2023-05-22T15:45:20.270Z,32.09
2023-05-22T15:47:47.411Z,31.00
2023-05-22T15:50:14.102Z,29.93
2023-05-22T15:52:40.999Z,29.54
2023-05-22T15:55:07.946Z,29.83
2023-05-22T15:57:34.571Z,30.26
2023-05-22T16:00:01.199Z,29.98
2023-05-22T16:02:27.820Z,30.24
2023-05-22T16:04:54.331Z,30.28
2023-05-22T16:07:20.887Z,30.86
2023-05-22T16:09:47.404Z,30.79
2023-05-22T16:12:13.934Z,30.71
2023-05-22T16:14:40.599Z,30.32
2023-05-22T16:17:07.674Z,30.20
2023-05-22T16:19:34.317Z,30.18
2023-05-22T16:22:01.023Z,30.37
2023-05-22T16:24:27.540Z,30.26
2023-05-22T16:26:56.368Z,29.47
2023-05-22T16:29:22.907Z,29.31
2023-05-22T16:31:49.580Z,29.89
2023-05-22T16:34:16.182Z,29.97
2023-05-22T16:36:42.822Z,29.47
2023-05-22T16:39:09.503Z,28.88
2023-05-22T16:41:39.144Z,28.10
2023-05-22T16:44:05.761Z,27.41
2023-05-22T16:46:32.424Z,27.07
2023-05-22T16:48:59.072Z,26.61
2023-05-22T16:51:25.663Z,26.42
2023-05-22T16:53:52.488Z,26.35
2023-05-22T16:56:20.806Z,26.01
2023-05-22T16:58:47.724Z,25.89
2023-05-22T17:01:14.702Z,26.03
2023-05-22T17:03:41.827Z,25.93
2023-05-22T17:06:09.019Z,26.17
2023-05-22T17:08:35.711Z,26.27
2023-05-22T17:11:02.330Z,26.39
2023-05-22T17:13:28.917Z,26.31
2023-05-22T17:15:55.539Z,26.01
2023-05-22T17:18:22.131Z,25.69
2023-05-22T17:20:50.284Z,25.66
2023-05-22T17:23:17.720Z,25.54
2023-05-22T17:25:46.592Z,25.53
2023-05-22T17:28:14.474Z,25.22
2023-05-22T17:30:42.662Z,25.10
2023-05-22T17:33:09.933Z,24.79
2023-05-22T17:35:36.525Z,24.68
2023-05-22T17:38:03.246Z,24.70
2023-05-22T17:40:43.124Z,24.52
2023-05-22T17:43:11.259Z,24.42
2023-05-22T17:45:37.969Z,24.40
2023-05-22T17:48:04.914Z,24.35
2023-05-22T17:50:31.588Z,24.30
2023-05-22T17:52:58.286Z,24.10
2023-05-22T17:55:24.871Z,23.97
2023-05-22T17:57:51.563Z,23.80
2023-05-22T18:00:18.653Z,23.75
2023-05-22T18:02:45.657Z,23.75
2023-05-22T18:05:12.450Z,23.71
2023-05-22T18:07:39.538Z,23.55
2023-05-22T18:10:06.891Z,23.37
2023-05-22T18:12:34.501Z,23.24
2023-05-22T18:15:02.598Z,23.12
2023-05-22T18:17:29.103Z,23.07
2023-05-22T18:19:55.885Z,22.94
2023-05-22T18:22:22.475Z,22.84
2023-05-22T18:24:49.213Z,22.70
2023-05-22T18:27:15.769Z,22.54
2023-05-22T18:29:42.375Z,22.43
2023-05-22T18:32:10.828Z,22.38
2023-05-22T18:34:37.820Z,22.29
2023-05-22T18:37:04.757Z,22.24
2023-05-22T18:39:31.569Z,22.11
2023-05-22T18:41:58.569Z,21.99
2023-05-22T18:44:25.366Z,21.92
2023-05-22T18:46:52.045Z,21.80
2023-05-22T18:49:18.882Z,21.68
2023-05-22T18:51:45.817Z,21.59
2023-05-22T18:54:12.382Z,21.47
2023-05-22T18:56:39.345Z,21.41
2023-05-22T18:59:05.993Z,21.41
2023-05-22T19:01:33.179Z,21.40
2023-05-22T19:04:00.560Z,21.31
2023-05-22T19:06:29.858Z,21.19
2023-05-22T19:08:56.425Z,21.12
2023-05-22T19:11:23.018Z,21.02
2023-05-22T19:13:50.817Z,20.94
2023-05-22T19:16:17.507Z,20.89
2023-05-22T19:18:44.129Z,20.81
2023-05-22T19:21:10.845Z,20.75
2023-05-22T19:23:38.595Z,20.70
2023-05-22T19:26:05.427Z,20.57
2023-05-22T19:28:32.366Z,20.49
2023-05-22T19:31:00.093Z,20.44
2023-05-22T19:33:27.292Z,20.40
2023-05-22T19:35:53.848Z,20.31
2023-05-22T19:38:20.431Z,20.23
2023-05-22T19:40:47.017Z,20.14
2023-05-22T19:43:13.777Z,20.03
2023-05-22T19:45:40.530Z,19.97
2023-05-22T19:48:07.225Z,19.84
2023-05-22T19:50:35.492Z,19.76
2023-05-22T19:53:02.247Z,19.61
2023-05-22T19:55:28.962Z,19.50
2023-05-22T19:57:55.812Z,19.42
2023-05-22T20:00:22.873Z,19.34
2023-05-22T20:02:50.149Z,19.37
2023-05-22T20:05:16.961Z,19.39
2023-05-22T20:07:43.908Z,19.40
2023-05-22T20:10:12.296Z,19.37
2023-05-22T20:12:40.007Z,19.37
2023-05-22T20:15:08.591Z,19.24
2023-05-22T20:17:36.020Z,19.22
2023-05-22T20:20:02.649Z,19.10
2023-05-22T20:22:29.199Z,18.97
2023-05-22T20:24:55.953Z,18.84
2023-05-22T20:27:22.562Z,18.71
2023-05-22T20:29:51.808Z,18.64
2023-05-22T20:32:18.279Z,18.71
2023-05-22T20:34:45.500Z,18.71
2023-05-22T20:37:13.623Z,18.71
2023-05-22T20:39:43.082Z,18.70
2023-05-22T20:42:11.627Z,18.69
2023-05-22T20:44:38.259Z,18.64
2023-05-22T20:47:05.880Z,18.63
2023-05-22T20:49:34.811Z,18.60
2023-05-22T20:52:01.949Z,18.50
2023-05-22T20:54:33.958Z,18.46
2023-05-22T20:57:03.856Z,18.37
2023-05-22T20:59:30.975Z,18.33
2023-05-22T21:01:57.836Z,18.24
2023-05-22T21:04:24.750Z,18.24
2023-05-22T21:06:51.418Z,18.21
2023-05-22T21:09:18.188Z,18.16
2023-05-22T21:11:44.732Z,18.17
2023-05-22T21:14:11.390Z,18.12
2023-05-22T21:16:39.534Z,18.08
2023-05-22T21:19:07.257Z,18.00
2023-05-22T21:21:35.591Z,17.94
2023-05-22T21:24:02.144Z,17.89
2023-05-22T21:26:28.635Z,17.87
2023-05-22T21:28:55.312Z,17.88
2023-05-22T21:31:21.854Z,17.89
2023-05-22T21:33:48.386Z,17.89
2023-05-22T21:36:14.930Z,17.85
2023-05-22T21:38:41.394Z,17.84
2023-05-22T21:41:07.943Z,17.86
2023-05-22T21:43:34.480Z,17.85
2023-05-22T21:46:00.973Z,17.87
2023-05-22T21:48:27.462Z,17.84
2023-05-22T21:50:54.095Z,17.84
2023-05-22T21:53:21.048Z,17.83
2023-05-22T21:55:47.647Z,17.84
2023-05-22T21:58:14.291Z,17.79
2023-05-22T22:00:41.161Z,17.79
2023-05-22T22:03:08.524Z,17.79
2023-05-22T22:05:35.974Z,17.77
2023-05-22T22:08:02.526Z,17.72
2023-05-22T22:10:29.052Z,17.72
2023-05-22T22:12:55.650Z,17.64
2023-05-22T22:15:22.491Z,17.60
2023-05-22T22:17:50.144Z,17.51
2023-05-22T22:20:18.663Z,17.47
2023-05-22T22:22:49.083Z,17.43
2023-05-22T22:25:15.666Z,17.42
2023-05-22T22:27:42.228Z,17.43
2023-05-22T22:30:09.883Z,17.41
2023-05-22T22:32:37.273Z,17.39
2023-05-22T22:35:03.975Z,17.40
2023-05-22T22:37:31.060Z,17.37
2023-05-22T22:39:57.599Z,17.30
2023-05-22T22:42:24.789Z,17.25
2023-05-22T22:44:51.276Z,17.23
2023-05-22T22:47:18.083Z,17.17
2023-05-22T22:49:44.576Z,17.12
2023-05-22T22:52:11.236Z,17.09
2023-05-22T22:54:37.921Z,17.02
2023-05-22T22:57:04.613Z,16.97
2023-05-22T22:59:31.753Z,16.90
2023-05-22T23:01:58.286Z,16.77
2023-05-22T23:04:24.937Z,16.69
2023-05-22T23:06:52.674Z,16.61
2023-05-22T23:09:19.254Z,16.56
2023-05-22T23:11:45.757Z,16.55
2023-05-22T23:14:13.432Z,16.53
2023-05-22T23:16:42.864Z,16.56
2023-05-22T23:19:10.934Z,16.56
2023-05-22T23:21:37.539Z,16.57
2023-05-22T23:24:04.929Z,16.53
2023-05-22T23:26:32.265Z,16.52
2023-05-22T23:28:59.869Z,16.50
2023-05-22T23:31:30.463Z,16.46
2023-05-22T23:33:57.715Z,16.46
2023-05-22T23:36:24.766Z,16.44
2023-05-22T23:38:51.312Z,16.46
2023-05-22T23:41:18.556Z,16.47
2023-05-22T23:43:46.253Z,16.49
2023-05-22T23:46:13.973Z,16.50
2023-05-22T23:48:41.709Z,16.49
2023-05-22T23:51:14.347Z,16.42
2023-05-22T23:53:42.032Z,16.37
2023-05-22T23:56:09.096Z,16.34
2023-05-22T23:58:35.733Z,16.30
